Terminal Aerodrome Forecast
Issued by NWS

Current Version | Previous Version | Text Only | Print | Product List | Glossary On
Versions: 1 2 3 4 5 6 7 8 9 10 11 12 13 14 15 16 17 18 19 20 21 22 23 24 25
000
FTUS44 KLZK 301300 AAA
TAFADF
TAF AMD
KADF 301313Z 3013/3112 00000KT 4SM BR SCT002
      TEMPO 3013/3014 1/2SM FG BKN002
     FM301400 20006KT P6SM SCT080
     FM310600 34008G15KT P6SM SKC=

USA.gov is the U.S. government's official web portal to all federal, state and local government web resources and services.